Woodsprings, Arizona
Current Conditions -  °F | °C
As of 2:53 PM on Saturday 25 Oct 2014 (Local Time) from KRQE Reporting Station
Clear Clear  
Wind Chill: 73°   Ceiling: Unl
Heat Index: 73°   Visibility: 10mi
Dew Point: 35°   Wind: 17mph
Humidity: 25%   Direction: 250°WSW
Pressure: 30.31"   Gusts: 24mph
Location:  35.6053°N, 109.458°W
Report Text: KRQE 252053Z AUTO 25015G21KT 10SM CLR 23/02 A3031 RMK AO2 SLP186 T02280017 56015 TSNO
Loading
Personal Weather Stations






























Interactive Weather Map New forecast layout! Learn more

10-Day Weather Forecast

Advertisements
Track Severe Weather on mobile